createdAt,value
2023-05-14T00:00:01.875Z,20.83
2023-05-14T00:02:28.650Z,18.65
2023-05-14T00:04:55.357Z,19.50
2023-05-14T00:07:21.928Z,20.80
2023-05-14T00:09:48.528Z,19.30
2023-05-14T00:12:15.273Z,19.45
2023-05-14T00:14:41.867Z,18.40
2023-05-14T00:17:08.915Z,21.55
2023-05-14T00:19:35.569Z,18.17
2023-05-14T00:22:02.220Z,20.38
2023-05-14T00:24:28.915Z,17.45
2023-05-14T00:26:55.560Z,20.38
2023-05-14T00:29:22.176Z,18.58
2023-05-14T00:31:48.824Z,16.48
2023-05-14T00:34:15.607Z,17.00
2023-05-14T00:36:42.377Z,19.20
2023-05-14T00:39:09.099Z,18.42
2023-05-14T00:41:35.782Z,20.15
2023-05-14T00:44:02.640Z,17.05
2023-05-14T00:46:29.413Z,20.52
2023-05-14T00:48:56.204Z,18.20
2023-05-14T00:51:22.834Z,19.30
2023-05-14T00:53:50.532Z,19.27
2023-05-14T00:56:17.391Z,25.20
2023-05-14T00:58:44.174Z,18.20
2023-05-14T01:01:12.168Z,18.05
2023-05-14T01:03:38.990Z,20.63
2023-05-14T01:06:11.731Z,23.65
2023-05-14T01:09:09.368Z,17.23
2023-05-14T01:11:41.116Z,19.10
2023-05-14T01:14:41.906Z,24.90
2023-05-14T01:17:11.414Z,24.85
2023-05-14T01:19:44.507Z,20.35
2023-05-14T01:22:11.834Z,22.58
2023-05-14T01:24:38.604Z,20.80
2023-05-14T01:27:46.199Z,24.42
2023-05-14T01:30:19.950Z,22.63
2023-05-14T01:32:48.786Z,18.73
2023-05-14T01:35:18.134Z,23.05
2023-05-14T01:37:45.750Z,27.55
2023-05-14T01:40:14.076Z,22.73
2023-05-14T01:42:41.280Z,20.10
2023-05-14T01:45:08.536Z,18.63
2023-05-14T01:47:35.519Z,22.67
2023-05-14T01:50:02.166Z,25.17
2023-05-14T01:52:28.784Z,20.15
2023-05-14T01:54:55.421Z,20.05
2023-05-14T01:57:22.090Z,25.27
2023-05-14T01:59:48.725Z,22.25
2023-05-14T02:02:15.385Z,21.25
2023-05-14T02:04:42.004Z,21.88
2023-05-14T02:07:08.677Z,22.60
2023-05-14T02:09:35.361Z,21.00
2023-05-14T02:12:02.034Z,21.42
2023-05-14T02:14:28.703Z,20.45
2023-05-14T02:16:55.476Z,18.52
2023-05-14T02:19:22.090Z,24.33
2023-05-14T02:21:50.265Z,20.58
2023-05-14T02:24:17.040Z,22.80
2023-05-14T02:26:43.661Z,21.20
2023-05-14T02:29:10.467Z,18.88
2023-05-14T02:31:37.148Z,21.85
2023-05-14T02:34:04.865Z,22.30
2023-05-14T02:36:31.878Z,22.70
2023-05-14T02:38:59.917Z,23.17
2023-05-14T02:41:26.840Z,20.40
2023-05-14T02:43:54.101Z,22.65
2023-05-14T02:46:21.324Z,21.50
2023-05-14T02:48:48.047Z,26.70
2023-05-14T02:51:14.680Z,19.50
2023-05-14T02:53:41.309Z,18.88
2023-05-14T02:56:08.170Z,19.25
2023-05-14T02:58:34.913Z,20.35
2023-05-14T03:01:01.880Z,24.50
2023-05-14T03:03:30.117Z,18.55
2023-05-14T03:05:57.294Z,21.75
2023-05-14T03:08:23.974Z,17.02
2023-05-14T03:10:50.798Z,21.10
2023-05-14T03:13:19.948Z,24.85
2023-05-14T03:15:47.484Z,23.42
2023-05-14T03:18:14.399Z,23.40
2023-05-14T03:20:41.596Z,24.70
2023-05-14T03:23:08.336Z,25.48
2023-05-14T03:25:35.001Z,26.20
2023-05-14T03:28:01.676Z,28.42
2023-05-14T03:30:28.442Z,29.17
2023-05-14T03:32:55.226Z,25.38
2023-05-14T03:35:21.919Z,25.67
2023-05-14T03:37:48.511Z,20.88
2023-05-14T03:40:15.270Z,22.23
2023-05-14T03:42:43.500Z,21.73
2023-05-14T03:45:10.752Z,27.42
2023-05-14T03:47:37.574Z,26.20
2023-05-14T03:50:04.433Z,20.10
2023-05-14T03:52:31.102Z,20.52
2023-05-14T03:54:57.695Z,22.40
2023-05-14T03:57:24.330Z,24.45
2023-05-14T03:59:50.969Z,22.65
2023-05-14T04:02:19.348Z,26.15
2023-05-14T04:04:47.091Z,27.98
2023-05-14T04:07:18.540Z,24.92
2023-05-14T04:09:45.282Z,21.85
2023-05-14T04:12:11.935Z,28.52
2023-05-14T04:14:38.805Z,27.83
2023-05-14T04:17:05.552Z,26.23
2023-05-14T04:19:32.182Z,25.30
2023-05-14T04:21:58.845Z,24.55
2023-05-14T04:24:25.516Z,34.15
2023-05-14T04:26:52.201Z,23.17
2023-05-14T04:29:18.763Z,22.48
2023-05-14T04:31:45.565Z,31.63
2023-05-14T04:34:12.316Z,24.52
2023-05-14T04:36:38.938Z,26.60
2023-05-14T04:39:06.026Z,24.58
2023-05-14T04:41:32.708Z,27.98
2023-05-14T04:44:01.832Z,26.20
2023-05-14T04:46:28.700Z,22.70
2023-05-14T04:48:56.447Z,26.90
2023-05-14T04:51:23.663Z,30.75
2023-05-14T04:53:50.425Z,27.55
2023-05-14T04:56:17.044Z,27.33
2023-05-14T04:58:43.681Z,25.90
2023-05-14T05:01:10.599Z,22.38
2023-05-14T05:03:37.306Z,29.30
2023-05-14T05:06:04.191Z,26.60
2023-05-14T05:08:30.866Z,27.83
2023-05-14T05:10:57.534Z,22.25
2023-05-14T05:13:24.181Z,32.72
2023-05-14T05:15:51.186Z,26.55
2023-05-14T05:18:17.898Z,23.60
2023-05-14T05:20:44.586Z,21.58
2023-05-14T05:23:11.292Z,23.63
2023-05-14T05:25:37.998Z,23.67
2023-05-14T05:28:04.736Z,19.73
2023-05-14T05:30:31.426Z,24.35
2023-05-14T05:32:58.154Z,22.98
2023-05-14T05:35:24.970Z,21.33
2023-05-14T05:37:51.574Z,24.52
2023-05-14T05:40:18.371Z,23.00
2023-05-14T05:42:45.046Z,24.23
2023-05-14T05:45:11.867Z,21.60
2023-05-14T05:47:38.583Z,24.25
2023-05-14T05:50:05.973Z,23.85
2023-05-14T05:52:32.649Z,20.33
2023-05-14T05:54:59.434Z,30.33
2023-05-14T05:57:27.230Z,26.38
2023-05-14T05:59:53.950Z,23.35
2023-05-14T06:02:20.756Z,25.73
2023-05-14T06:04:47.501Z,21.70
2023-05-14T06:07:14.235Z,23.05
2023-05-14T06:09:40.853Z,18.35
2023-05-14T06:12:07.917Z,24.77
2023-05-14T06:14:34.523Z,24.73
2023-05-14T06:17:01.223Z,20.25
2023-05-14T06:19:27.910Z,19.40
2023-05-14T06:21:54.513Z,16.40
2023-05-14T06:24:21.256Z,23.40
2023-05-14T06:26:49.372Z,22.48
2023-05-14T06:29:16.119Z,21.77
2023-05-14T06:31:42.836Z,19.55
2023-05-14T06:34:09.587Z,20.95
2023-05-14T06:36:36.204Z,21.40
2023-05-14T06:39:03.446Z,22.83
2023-05-14T06:41:30.304Z,25.65
2023-05-14T06:43:56.985Z,25.77
2023-05-14T06:46:23.582Z,21.65
2023-05-14T06:48:50.616Z,23.38
2023-05-14T06:51:17.254Z,18.33
2023-05-14T06:53:43.864Z,19.25
2023-05-14T06:56:10.978Z,17.95
2023-05-14T06:58:37.675Z,22.42
2023-05-14T07:01:04.511Z,23.25
2023-05-14T07:03:31.168Z,24.70
2023-05-14T07:05:57.953Z,20.15
2023-05-14T07:08:24.729Z,17.52
2023-05-14T07:10:51.526Z,21.90
2023-05-14T07:13:18.170Z,19.67
2023-05-14T07:15:44.969Z,15.13
2023-05-14T07:18:11.822Z,19.10
2023-05-14T07:20:38.523Z,17.67
2023-05-14T07:23:05.130Z,21.38
2023-05-14T07:25:32.694Z,19.52
2023-05-14T07:27:59.338Z,18.83
2023-05-14T07:30:26.229Z,16.42
2023-05-14T07:32:53.226Z,19.23
2023-05-14T07:35:20.098Z,18.15
2023-05-14T07:37:46.904Z,19.20
2023-05-14T07:40:13.670Z,15.88
2023-05-14T07:42:40.360Z,18.33
2023-05-14T07:45:07.577Z,14.98
2023-05-14T07:47:34.408Z,14.75
2023-05-14T07:50:01.106Z,14.90
2023-05-14T07:52:27.706Z,16.92
2023-05-14T07:54:55.000Z,19.15
2023-05-14T07:57:22.092Z,17.58
2023-05-14T07:59:48.931Z,14.00
2023-05-14T08:02:16.764Z,17.63
2023-05-14T08:04:43.888Z,14.80
2023-05-14T08:07:10.685Z,18.92
2023-05-14T08:09:37.403Z,15.55
2023-05-14T08:12:04.284Z,17.23
2023-05-14T08:14:30.915Z,12.68
2023-05-14T08:16:57.564Z,15.88
2023-05-14T08:19:24.559Z,11.52
2023-05-14T08:21:51.494Z,15.32
2023-05-14T08:24:18.881Z,13.75
2023-05-14T08:26:45.508Z,12.20
2023-05-14T08:29:14.004Z,14.38
2023-05-14T08:31:42.272Z,14.68
2023-05-14T08:34:08.921Z,14.93
2023-05-14T08:36:35.621Z,15.38
2023-05-14T08:39:02.370Z,13.55
2023-05-14T08:41:29.160Z,12.07
2023-05-14T08:44:13.365Z,12.30
2023-05-14T08:46:40.384Z,11.95
2023-05-14T08:49:29.917Z,14.52
2023-05-14T08:51:56.620Z,13.60
2023-05-14T08:54:24.685Z,13.73
2023-05-14T08:56:52.024Z,14.35
2023-05-14T08:59:19.301Z,12.80
2023-05-14T09:01:51.949Z,13.10
2023-05-14T09:04:23.550Z,12.63
2023-05-14T09:06:52.025Z,14.38
2023-05-14T09:09:19.259Z,11.82
2023-05-14T09:11:46.936Z,11.40
2023-05-14T09:14:13.539Z,14.00
2023-05-14T09:16:42.741Z,17.30
2023-05-14T09:19:09.593Z,13.07
2023-05-14T09:21:36.794Z,16.73
2023-05-14T09:24:03.935Z,15.23
2023-05-14T09:26:32.807Z,15.02
2023-05-14T09:29:03.928Z,14.93
2023-05-14T09:31:31.951Z,13.75
2023-05-14T09:33:59.380Z,13.55
2023-05-14T09:36:27.232Z,15.70
2023-05-14T09:38:56.805Z,15.95
2023-05-14T09:41:23.551Z,12.65
2023-05-14T09:43:53.001Z,13.32
2023-05-14T09:46:19.619Z,12.07
2023-05-14T09:48:46.570Z,14.75
2023-05-14T09:51:13.712Z,11.15
2023-05-14T09:53:41.316Z,11.73
2023-05-14T09:56:07.975Z,12.88
2023-05-14T09:58:34.646Z,14.65
2023-05-14T10:01:01.930Z,15.27
2023-05-14T10:03:30.426Z,14.88
2023-05-14T10:06:02.328Z,12.48
2023-05-14T10:08:35.215Z,13.48
2023-05-14T10:11:04.052Z,10.32
2023-05-14T10:13:33.862Z,9.98
2023-05-14T10:16:22.792Z,9.55
2023-05-14T10:18:54.161Z,12.82
2023-05-14T10:21:22.692Z,9.52
2023-05-14T10:23:50.425Z,13.15
2023-05-14T10:26:17.109Z,11.82
2023-05-14T10:28:44.093Z,13.15
2023-05-14T10:31:10.842Z,10.02
2023-05-14T10:33:49.286Z,12.43
2023-05-14T10:36:19.275Z,10.68
2023-05-14T10:38:46.917Z,13.77
2023-05-14T10:41:21.630Z,11.50
2023-05-14T10:43:48.433Z,10.02
2023-05-14T10:46:15.137Z,14.57
2023-05-14T10:48:43.406Z,11.02
2023-05-14T10:51:11.228Z,10.63
2023-05-14T10:53:42.720Z,15.02
2023-05-14T10:56:11.043Z,14.63
2023-05-14T10:58:46.756Z,9.93
2023-05-14T11:01:13.820Z,10.88
2023-05-14T11:03:45.553Z,13.63
2023-05-14T11:06:13.918Z,7.78
2023-05-14T11:08:41.634Z,8.23
2023-05-14T11:11:09.373Z,9.75
2023-05-14T11:13:36.039Z,6.60
2023-05-14T11:16:15.074Z,11.63
2023-05-14T11:18:48.221Z,7.03
2023-05-14T11:21:17.332Z,8.80
2023-05-14T11:23:46.559Z,9.85
2023-05-14T11:26:13.174Z,7.32
2023-05-14T11:28:40.095Z,9.40
2023-05-14T11:31:06.745Z,11.50
2023-05-14T11:33:33.376Z,15.25
2023-05-14T11:35:59.955Z,8.45
2023-05-14T11:38:26.598Z,11.45
2023-05-14T11:40:57.620Z,6.28
2023-05-14T11:43:26.192Z,8.68
2023-05-14T11:45:53.553Z,7.30
2023-05-14T11:48:21.038Z,10.52
2023-05-14T11:50:49.679Z,9.68
2023-05-14T11:53:19.274Z,6.68
2023-05-14T11:55:47.497Z,7.80
2023-05-14T11:58:14.219Z,7.60
2023-05-14T12:00:41.526Z,8.07
2023-05-14T12:03:10.162Z,8.52
2023-05-14T12:05:39.149Z,7.05
2023-05-14T12:08:22.523Z,8.45
2023-05-14T12:10:49.345Z,7.38
2023-05-14T12:13:17.402Z,6.90
2023-05-14T12:15:48.459Z,9.30
2023-05-14T12:18:24.190Z,8.93
2023-05-14T12:20:52.154Z,12.20
2023-05-14T12:23:26.187Z,12.43
2023-05-14T12:25:52.894Z,13.32
2023-05-14T12:28:19.832Z,8.73
2023-05-14T12:30:47.400Z,13.70
2023-05-14T12:33:18.018Z,6.15
2023-05-14T12:35:44.929Z,8.80
2023-05-14T12:38:11.712Z,4.05
2023-05-14T12:40:38.359Z,5.80
2023-05-14T12:43:05.000Z,8.20
2023-05-14T12:45:31.707Z,6.97
2023-05-14T12:47:58.481Z,7.50
2023-05-14T12:50:25.425Z,8.05
2023-05-14T12:52:52.279Z,7.15
2023-05-14T12:55:18.867Z,6.00
2023-05-14T12:57:45.637Z,7.22
2023-05-14T13:00:14.187Z,4.38
2023-05-14T13:02:43.021Z,8.07
2023-05-14T13:05:11.477Z,5.38
2023-05-14T13:07:38.607Z,5.57
2023-05-14T13:10:05.942Z,10.27
2023-05-14T13:12:32.904Z,7.72
2023-05-14T13:14:59.700Z,8.15
2023-05-14T13:17:26.444Z,6.50
2023-05-14T13:19:53.156Z,8.40
2023-05-14T13:22:19.772Z,5.47
2023-05-14T13:24:46.636Z,7.13
2023-05-14T13:27:13.254Z,6.07
2023-05-14T13:29:39.977Z,4.32
2023-05-14T13:32:06.900Z,6.70
2023-05-14T13:34:33.902Z,7.80
2023-05-14T13:37:01.087Z,5.35
2023-05-14T13:39:27.751Z,4.32
2023-05-14T13:41:56.691Z,4.93
2023-05-14T13:44:23.453Z,4.55
2023-05-14T13:46:50.257Z,6.53
2023-05-14T13:49:16.900Z,8.43
2023-05-14T13:51:43.967Z,8.15
2023-05-14T13:54:10.792Z,6.07
2023-05-14T13:56:37.457Z,12.52
2023-05-14T13:59:04.246Z,9.07
2023-05-14T14:01:31.554Z,3.45
2023-05-14T14:03:58.373Z,8.23
2023-05-14T14:06:27.365Z,4.65
2023-05-14T14:08:54.092Z,8.70
2023-05-14T14:11:20.977Z,3.63
2023-05-14T14:13:47.606Z,7.88
2023-05-14T14:16:14.192Z,4.32
2023-05-14T14:18:41.337Z,8.40
2023-05-14T14:21:07.968Z,4.07
2023-05-14T14:23:34.596Z,4.00
2023-05-14T14:26:01.225Z,4.50
2023-05-14T14:28:27.842Z,5.05
2023-05-14T14:30:54.482Z,9.07
2023-05-14T14:33:21.161Z,8.32
2023-05-14T14:35:47.911Z,3.63
2023-05-14T14:38:14.601Z,4.78
2023-05-14T14:40:41.279Z,5.53
2023-05-14T14:43:07.866Z,4.03
2023-05-14T14:45:34.636Z,7.18
2023-05-14T14:48:26.309Z,2.72
2023-05-14T14:50:53.633Z,5.72
2023-05-14T14:53:21.340Z,5.85
2023-05-14T14:55:48.836Z,5.28
2023-05-14T14:58:15.626Z,5.53
2023-05-14T15:00:42.311Z,3.88
2023-05-14T15:03:10.236Z,4.47
2023-05-14T15:05:37.039Z,6.35
2023-05-14T15:08:04.381Z,4.68
2023-05-14T15:10:31.782Z,6.25
2023-05-14T15:12:59.258Z,4.80
2023-05-14T15:15:26.654Z,5.65
2023-05-14T15:17:53.368Z,5.43
2023-05-14T15:20:20.186Z,7.28
2023-05-14T15:22:46.872Z,5.78
2023-05-14T15:25:13.492Z,3.83
2023-05-14T15:27:40.315Z,5.43
2023-05-14T15:30:07.623Z,7.68
2023-05-14T15:32:34.352Z,5.95
2023-05-14T15:35:01.364Z,6.15
2023-05-14T15:37:28.072Z,9.63
2023-05-14T15:39:54.667Z,10.95
2023-05-14T15:42:21.360Z,7.28
2023-05-14T15:44:48.039Z,6.43
2023-05-14T15:47:14.738Z,6.53
2023-05-14T15:49:41.553Z,4.15
2023-05-14T15:52:08.233Z,5.72
2023-05-14T15:54:34.828Z,6.07
2023-05-14T15:57:01.536Z,7.75
2023-05-14T15:59:28.213Z,10.27
2023-05-14T16:01:54.882Z,6.25
2023-05-14T16:04:21.584Z,7.55
2023-05-14T16:06:48.242Z,7.22
2023-05-14T16:09:14.885Z,4.70
2023-05-14T16:11:41.501Z,6.22
2023-05-14T16:14:08.129Z,4.25
2023-05-14T16:16:35.207Z,6.13
2023-05-14T16:19:01.917Z,4.82
2023-05-14T16:21:28.556Z,5.75
2023-05-14T16:23:55.297Z,6.60
2023-05-14T16:26:22.337Z,5.70
2023-05-14T16:28:48.991Z,6.68
2023-05-14T16:31:15.855Z,6.72
2023-05-14T16:33:42.692Z,6.45
2023-05-14T16:36:09.327Z,7.78
2023-05-14T16:38:41.471Z,5.70
2023-05-14T16:41:14.900Z,5.40
2023-05-14T16:43:41.671Z,6.07
2023-05-14T16:46:08.435Z,5.50
2023-05-14T16:48:35.078Z,6.20
2023-05-14T16:51:01.869Z,5.45
2023-05-14T16:53:28.517Z,4.93
2023-05-14T16:55:55.164Z,6.25
2023-05-14T16:58:21.749Z,7.13
2023-05-14T17:00:48.514Z,5.93
2023-05-14T17:03:15.193Z,6.45
2023-05-14T17:05:42.294Z,5.75
2023-05-14T17:08:09.066Z,6.97
2023-05-14T17:10:35.918Z,7.03
2023-05-14T17:13:02.947Z,4.68
2023-05-14T17:15:29.762Z,4.22
2023-05-14T17:17:56.472Z,5.18
2023-05-14T17:20:23.327Z,6.22
2023-05-14T17:22:49.999Z,7.50
2023-05-14T17:25:16.824Z,9.57
2023-05-14T17:27:43.577Z,2.95
2023-05-14T17:30:10.613Z,7.05
2023-05-14T17:32:37.365Z,4.30
2023-05-14T17:35:05.261Z,6.63
2023-05-14T17:37:32.072Z,6.78
2023-05-14T17:39:58.712Z,5.65
2023-05-14T17:42:25.526Z,6.00
2023-05-14T17:44:52.135Z,7.78
2023-05-14T17:47:20.545Z,8.18
2023-05-14T17:49:51.180Z,8.75
2023-05-14T17:52:17.818Z,5.40
2023-05-14T17:54:44.413Z,9.18
2023-05-14T17:57:11.071Z,5.93
2023-05-14T17:59:37.687Z,9.70
2023-05-14T18:02:05.680Z,13.43
2023-05-14T18:04:32.393Z,17.13
2023-05-14T18:07:01.026Z,16.65
2023-05-14T18:09:27.655Z,19.35
2023-05-14T18:11:56.810Z,20.75
2023-05-14T18:14:23.788Z,21.42
2023-05-14T18:16:51.285Z,19.35
2023-05-14T18:19:18.342Z,18.17
2023-05-14T18:21:48.088Z,19.52
2023-05-14T18:24:14.753Z,23.35
2023-05-14T18:26:41.378Z,18.77
2023-05-14T18:29:08.304Z,26.55
2023-05-14T18:31:35.047Z,22.13
2023-05-14T18:34:01.982Z,21.48
2023-05-14T18:36:28.699Z,30.80
2023-05-14T18:38:55.327Z,22.52
2023-05-14T18:41:21.954Z,27.05
2023-05-14T18:43:48.525Z,19.83
2023-05-14T18:46:15.325Z,21.40
2023-05-14T18:48:41.934Z,20.85
2023-05-14T18:51:08.718Z,23.05
2023-05-14T18:53:35.352Z,28.80
2023-05-14T18:56:01.984Z,23.40
2023-05-14T18:58:28.600Z,29.13
2023-05-14T19:00:57.834Z,24.13
2023-05-14T19:03:25.074Z,25.92
2023-05-14T19:05:53.171Z,26.27
2023-05-14T19:08:19.771Z,22.92
2023-05-14T19:10:46.751Z,22.20
2023-05-14T19:13:13.486Z,28.45
2023-05-14T19:15:40.206Z,28.42
2023-05-14T19:18:07.079Z,22.95
2023-05-14T19:20:33.768Z,29.42
2023-05-14T19:23:00.489Z,27.65
2023-05-14T19:25:27.960Z,23.30
2023-05-14T19:27:55.921Z,24.70
2023-05-14T19:30:23.412Z,26.45
2023-05-14T19:32:50.074Z,28.73
2023-05-14T19:35:16.859Z,26.00
2023-05-14T19:37:43.562Z,25.85
2023-05-14T19:40:10.674Z,31.38
2023-05-14T19:42:37.256Z,28.50
2023-05-14T19:45:04.145Z,28.15
2023-05-14T19:47:30.951Z,31.17
2023-05-14T19:49:57.529Z,29.80
2023-05-14T19:52:24.173Z,31.23
2023-05-14T19:54:50.788Z,27.20
2023-05-14T19:57:17.400Z,28.95
2023-05-14T19:59:44.448Z,30.33
2023-05-14T20:02:18.596Z,32.33
2023-05-14T20:04:47.384Z,34.42
2023-05-14T20:07:15.604Z,40.47
2023-05-14T20:09:42.405Z,34.80
2023-05-14T20:12:09.443Z,31.50
2023-05-14T20:14:36.172Z,32.50
2023-05-14T20:17:02.864Z,35.45
2023-05-14T20:19:29.526Z,34.50
2023-05-14T20:21:56.445Z,33.97
2023-05-14T20:24:23.086Z,36.10
2023-05-14T20:26:49.635Z,31.63
2023-05-14T20:29:16.298Z,36.72
2023-05-14T20:31:42.868Z,35.40
2023-05-14T20:34:09.530Z,35.05
2023-05-14T20:36:36.216Z,39.05
2023-05-14T20:39:04.092Z,35.83
2023-05-14T20:41:30.747Z,40.50
2023-05-14T20:43:57.334Z,33.90
2023-05-14T20:46:24.000Z,40.30
2023-05-14T20:48:51.831Z,40.47
2023-05-14T20:51:18.475Z,41.90
2023-05-14T20:53:45.092Z,35.50
2023-05-14T20:56:11.843Z,39.30
2023-05-14T20:58:38.649Z,36.03
2023-05-14T21:01:07.947Z,37.25
2023-05-14T21:03:34.855Z,40.05
2023-05-14T21:06:02.677Z,41.58
2023-05-14T21:08:29.852Z,46.78
2023-05-14T21:10:56.464Z,42.22
2023-05-14T21:13:23.163Z,42.22
2023-05-14T21:15:49.958Z,39.00
2023-05-14T21:18:16.618Z,44.97
2023-05-14T21:20:43.276Z,42.38
2023-05-14T21:23:12.884Z,39.95
2023-05-14T21:25:39.713Z,44.63
2023-05-14T21:28:06.423Z,40.80
2023-05-14T21:30:33.067Z,41.97
2023-05-14T21:32:59.754Z,42.97
2023-05-14T21:35:26.662Z,38.53
2023-05-14T21:37:53.582Z,38.42
2023-05-14T21:40:20.210Z,42.60
2023-05-14T21:42:46.875Z,43.22
2023-05-14T21:45:13.499Z,46.38
2023-05-14T21:47:40.291Z,39.55
2023-05-14T21:50:07.691Z,45.17
2023-05-14T21:52:34.324Z,46.15
2023-05-14T21:55:00.929Z,49.97
2023-05-14T21:57:28.913Z,42.85
2023-05-14T21:59:56.280Z,44.30
2023-05-14T22:02:23.008Z,42.35
2023-05-14T22:04:49.804Z,42.90
2023-05-14T22:07:16.434Z,42.97
2023-05-14T22:09:43.013Z,44.67
2023-05-14T22:12:09.707Z,40.20
2023-05-14T22:14:36.493Z,45.47
2023-05-14T22:17:03.266Z,43.53
2023-05-14T22:19:29.866Z,44.80
2023-05-14T22:21:56.553Z,50.58
2023-05-14T22:24:23.229Z,44.72
2023-05-14T22:26:49.859Z,48.17
2023-05-14T22:29:16.542Z,43.78
2023-05-14T22:31:43.198Z,46.83
2023-05-14T22:34:09.819Z,49.85
2023-05-14T22:36:36.647Z,55.45
2023-05-14T22:39:03.353Z,52.38
2023-05-14T22:41:30.738Z,53.70
2023-05-14T22:43:57.345Z,49.83
2023-05-14T22:46:24.123Z,54.60
2023-05-14T22:48:51.074Z,52.58
2023-05-14T22:51:17.960Z,61.17
2023-05-14T22:53:45.478Z,55.15
2023-05-14T22:56:12.092Z,52.67
2023-05-14T22:58:38.693Z,58.55
2023-05-14T23:01:05.566Z,58.58
2023-05-14T23:03:32.194Z,52.97
2023-05-14T23:05:59.088Z,59.78
2023-05-14T23:08:25.706Z,56.20
2023-05-14T23:10:52.371Z,58.35
2023-05-14T23:13:19.355Z,60.00
2023-05-14T23:15:46.136Z,69.07
2023-05-14T23:18:12.866Z,61.25
2023-05-14T23:20:39.539Z,65.25
2023-05-14T23:23:06.461Z,66.30
2023-05-14T23:25:33.131Z,73.10
2023-05-14T23:27:59.771Z,62.47
2023-05-14T23:30:26.438Z,72.60
2023-05-14T23:32:53.147Z,68.03
2023-05-14T23:35:19.781Z,64.28
2023-05-14T23:37:47.090Z,67.55
2023-05-14T23:40:14.299Z,58.75
2023-05-14T23:42:40.946Z,64.43
2023-05-14T23:45:08.147Z,62.42
2023-05-14T23:47:35.056Z,71.57
2023-05-14T23:50:01.844Z,68.82
2023-05-14T23:52:28.461Z,81.03
2023-05-14T23:54:55.143Z,75.78
2023-05-14T23:57:21.788Z,73.70
2023-05-14T23:59:48.468Z,77.80
